aviador You're here:

SARF Decoded Metar

FORMOSA in ARGENTINA
Report Time2018-04-27 02:00:00
UTC Time2018-04-27 03:02:57
Flight Rules vfr VFR
Wind090° at 06 kt
W.Decomp.*RWY 04: 2.8 kt HW 5.3 kt RCW
W.Rank090° ranks 4
Current wind is above 090° avg. (5.9)
Visibility9999 m
Phenomena:N/A
Clouds:N/A
Expected CloudBase > 400 ft AGL from Temp-Dew spread
CeilingNone
Temp23°C (ISA +8)
Dew Point22°C (94% RH)
QNH1012 hPa
Density Alt1,555 ft
Elevation197 ft
Report Wrong Elevation
Raw Report
SARF 270200Z 09006KT CAVOK 23/22 Q1012=

Extra information for SARF:More info

Metar Taf Metar & Taf Last 4 Metars F.Rules Stats Wind Profile Meteogram Temp Stats Airport Information Weather charts Add Link Nearby VenuesMetar ALERT Operation Metar Decoded Social comments